createdAt,value
2022-08-10T00:02:56.625Z,20.80
2022-08-10T00:05:53.133Z,20.60
2022-08-10T00:08:42.528Z,20.80
2022-08-10T00:25:46.327Z,20.20
2022-08-10T00:28:34.902Z,20.60
2022-08-10T00:37:01.010Z,20.50
2022-08-10T00:45:26.248Z,20.50
2022-08-10T00:48:14.450Z,20.50
2022-08-10T00:51:02.765Z,20.40
2022-08-10T00:57:17.110Z,20.40
2022-08-10T00:59:58.575Z,20.40
2022-08-10T01:02:48.418Z,20.30
2022-08-10T01:06:00.565Z,20.30
2022-08-10T01:09:01.785Z,20.30
2022-08-10T01:12:38.065Z,20.20
2022-08-10T01:15:32.677Z,20.30
2022-08-10T01:18:37.642Z,20.30
2022-08-10T01:21:53.227Z,20.30
2022-08-10T01:24:53.515Z,20.20
2022-08-10T01:28:21.454Z,20.20
2022-08-10T01:31:16.825Z,20.00
2022-08-10T01:34:19.387Z,20.10
2022-08-10T01:37:14.993Z,20.00
2022-08-10T01:40:07.276Z,19.90
2022-08-10T01:43:07.974Z,19.90
2022-08-10T01:46:00.021Z,19.90
2022-08-10T01:48:54.697Z,19.90
2022-08-10T01:51:56.934Z,19.90
2022-08-10T01:54:51.287Z,19.70
2022-08-10T01:57:43.604Z,19.70
2022-08-10T02:00:36.860Z,19.70
2022-08-10T02:03:26.237Z,19.60
2022-08-10T02:06:16.397Z,19.60
2022-08-10T02:09:07.826Z,19.60
2022-08-10T02:12:07.066Z,19.50
2022-08-10T02:19:51.813Z,19.40
2022-08-10T02:22:41.393Z,19.40
2022-08-10T02:25:42.486Z,19.40
2022-08-10T02:28:34.481Z,19.40
2022-08-10T02:31:25.153Z,19.30
2022-08-10T02:34:16.513Z,19.30
2022-08-10T02:37:10.786Z,19.40
2022-08-10T02:39:59.535Z,21.00
2022-08-10T02:45:18.780Z,19.20
2022-08-10T02:46:18.249Z,19.20
2022-08-10T02:49:21.710Z,19.20
2022-08-10T02:52:22.137Z,19.20
2022-08-10T02:55:41.655Z,19.10
2022-08-10T02:58:41.019Z,19.20
2022-08-10T03:01:34.353Z,19.20
2022-08-10T03:04:55.542Z,19.10
2022-08-10T03:07:53.547Z,19.10
2022-08-10T03:10:44.294Z,19.10
2022-08-10T03:13:33.985Z,19.10
2022-08-10T03:16:23.534Z,19.00
2022-08-10T03:22:21.356Z,18.90
2022-08-10T03:25:12.333Z,18.90
2022-08-10T03:28:01.441Z,18.90
2022-08-10T03:30:50.376Z,18.80
2022-08-10T03:33:41.554Z,18.80
2022-08-10T03:36:42.691Z,18.80
2022-08-10T03:42:24.478Z,18.60
2022-08-10T03:45:13.339Z,18.60
2022-08-10T03:48:04.322Z,18.60
2022-08-10T03:50:52.975Z,18.50
2022-08-10T03:59:39.233Z,18.40
2022-08-10T04:02:46.582Z,18.40
2022-08-10T04:05:38.594Z,18.40
2022-08-10T04:14:35.591Z,18.30
2022-08-10T04:23:27.656Z,18.30
2022-08-10T04:26:17.006Z,18.20
2022-08-10T04:34:44.980Z,18.20
2022-08-10T04:37:35.005Z,18.10
2022-08-10T04:40:29.332Z,18.10
2022-08-10T04:43:19.341Z,18.10
2022-08-10T04:55:13.581Z,18.20
2022-08-10T04:58:01.731Z,18.20
2022-08-10T05:00:50.235Z,18.20
2022-08-10T05:12:43.890Z,18.20
2022-08-10T05:23:57.447Z,18.50
2022-08-10T05:27:00.297Z,18.60
2022-08-10T05:30:01.504Z,18.60
2022-08-10T05:32:58.951Z,18.50
2022-08-10T05:38:47.355Z,18.80
2022-08-10T05:41:41.365Z,19.00
2022-08-10T05:44:34.907Z,19.10
2022-08-10T05:47:23.704Z,19.70
2022-08-10T05:50:14.075Z,19.10
2022-08-10T05:53:59.233Z,18.50
2022-08-10T05:56:11.420Z,19.40
2022-08-10T05:58:59.559Z,19.40
2022-08-10T06:02:33.899Z,19.50
2022-08-10T06:05:30.753Z,19.60
2022-08-10T06:08:26.884Z,19.80
2022-08-10T06:12:27.009Z,19.90
2022-08-10T06:14:43.668Z,19.90
2022-08-10T06:17:41.639Z,19.90
2022-08-10T06:20:35.919Z,20.10
2022-08-10T06:23:28.635Z,20.20
2022-08-10T06:26:21.102Z,20.40
2022-08-10T06:29:15.349Z,20.30
2022-08-10T06:32:05.522Z,20.30
2022-08-10T06:35:11.347Z,20.30
2022-08-10T06:38:03.447Z,20.80
2022-08-10T06:40:57.455Z,20.70
2022-08-10T06:43:57.760Z,20.90
2022-08-10T06:46:51.277Z,21.00
2022-08-10T06:49:39.591Z,21.20
2022-08-10T06:52:31.032Z,21.30
2022-08-10T06:55:39.821Z,22.70
2022-08-10T06:58:36.414Z,21.70
2022-08-10T07:01:34.695Z,21.70
2022-08-10T07:04:32.291Z,21.60
2022-08-10T07:07:27.852Z,21.90
2022-08-10T07:10:20.405Z,22.20
2022-08-10T07:13:10.119Z,22.20
2022-08-10T07:16:00.796Z,22.40
2022-08-10T07:18:49.698Z,22.50
2022-08-10T07:21:44.313Z,22.60
2022-08-10T07:24:34.765Z,22.80
2022-08-10T07:27:25.188Z,23.20
2022-08-10T07:30:14.192Z,23.00
2022-08-10T07:33:04.019Z,23.40
2022-08-10T07:38:41.438Z,23.50
2022-08-10T07:41:32.069Z,23.50
2022-08-10T07:44:21.444Z,23.50
2022-08-10T07:47:53.906Z,23.90
2022-08-10T07:50:35.269Z,24.00
2022-08-10T07:53:28.560Z,24.30
2022-08-10T07:56:45.449Z,24.20
2022-08-10T07:59:38.621Z,24.40
2022-08-10T08:02:34.070Z,24.60
2022-08-10T08:05:59.232Z,24.80
2022-08-10T08:08:40.028Z,24.60
2022-08-10T08:11:29.634Z,25.10
2022-08-10T08:14:22.011Z,25.50
2022-08-10T08:17:12.493Z,25.60
2022-08-10T08:20:04.794Z,25.60
2022-08-10T08:26:24.670Z,26.40
2022-08-10T08:29:19.573Z,26.40
2022-08-10T08:32:08.740Z,26.30
2022-08-10T08:35:08.263Z,26.50
2022-08-10T08:38:31.370Z,26.30
2022-08-10T08:41:47.592Z,26.50
2022-08-10T08:44:59.788Z,26.60
2022-08-10T08:48:24.656Z,27.50
2022-08-10T08:52:09.647Z,27.20
2022-08-10T08:54:59.866Z,27.70
2022-08-10T08:58:06.030Z,28.10
2022-08-10T09:01:38.320Z,27.50
2022-08-10T09:05:06.828Z,27.90
2022-08-10T09:08:41.976Z,27.70
2022-08-10T09:12:00.317Z,27.90
2022-08-10T09:15:06.188Z,28.10
2022-08-10T09:18:06.211Z,28.00
2022-08-10T09:21:12.248Z,27.90
2022-08-10T09:24:32.160Z,28.10
2022-08-10T09:27:45.586Z,28.10
2022-08-10T09:36:21.067Z,28.20
2022-08-10T09:38:03.208Z,28.20
2022-08-10T09:41:32.760Z,27.90
2022-08-10T09:45:07.083Z,28.30
2022-08-10T09:48:39.695Z,28.60
2022-08-10T09:52:27.867Z,29.20
2022-08-10T09:56:17.822Z,29.20
2022-08-10T09:59:26.882Z,28.50
2022-08-10T10:06:04.432Z,29.40
2022-08-10T10:09:10.107Z,29.50
2022-08-10T10:12:36.515Z,29.90
2022-08-10T10:16:02.037Z,29.90
2022-08-10T10:19:04.907Z,30.40
2022-08-10T10:22:11.808Z,30.50
2022-08-10T10:25:25.487Z,29.90
2022-08-10T10:32:36.911Z,30.80
2022-08-10T10:35:40.595Z,30.30
2022-08-10T10:38:38.246Z,30.60
2022-08-10T10:42:14.615Z,30.50
2022-08-10T10:45:51.009Z,30.80
2022-08-10T10:48:54.656Z,31.00
2022-08-10T10:51:53.786Z,31.40
2022-08-10T10:55:07.324Z,31.10
2022-08-10T10:58:22.461Z,31.40
2022-08-10T11:01:22.182Z,31.20
2022-08-10T11:05:02.419Z,31.10
2022-08-10T11:08:01.172Z,31.40
2022-08-10T11:12:00.044Z,31.40
2022-08-10T11:14:38.498Z,31.60
2022-08-10T11:17:34.726Z,31.30
2022-08-10T11:20:49.920Z,31.50
2022-08-10T11:24:42.483Z,32.00
2022-08-10T11:27:21.909Z,31.70
2022-08-10T11:30:18.964Z,31.60
2022-08-10T11:36:35.555Z,32.20
2022-08-10T11:40:13.190Z,32.40
2022-08-10T11:43:22.723Z,32.00
2022-08-10T11:46:33.195Z,31.90
2022-08-10T11:49:46.888Z,31.70
2022-08-10T11:52:49.442Z,32.20
2022-08-10T11:55:37.631Z,32.30
2022-08-10T11:58:50.932Z,32.70
2022-08-10T12:04:29.212Z,33.40
2022-08-10T12:10:06.143Z,33.30
2022-08-10T12:10:28.479Z,33.50
2022-08-10T12:14:19.631Z,33.60
2022-08-10T12:17:15.375Z,33.40
2022-08-10T12:20:37.842Z,33.30
2022-08-10T12:24:03.314Z,33.50
2022-08-10T12:27:03.721Z,33.70
2022-08-10T12:30:04.779Z,33.70
2022-08-10T12:36:18.636Z,33.20
2022-08-10T12:39:17.970Z,32.80
2022-08-10T12:42:38.643Z,32.40
2022-08-10T12:46:01.925Z,32.80
2022-08-10T12:52:07.656Z,32.80
2022-08-10T12:54:59.674Z,32.90
2022-08-10T12:57:56.727Z,33.20
2022-08-10T13:01:12.749Z,33.40
2022-08-10T13:04:22.915Z,33.10
2022-08-10T13:13:08.780Z,33.70
2022-08-10T13:15:58.493Z,33.60
2022-08-10T13:18:47.331Z,33.60
2022-08-10T13:21:38.708Z,32.60
2022-08-10T13:24:36.877Z,33.40
2022-08-10T13:28:00.947Z,33.60
2022-08-10T13:30:40.444Z,34.40
2022-08-10T13:36:40.649Z,34.20
2022-08-10T13:39:58.903Z,34.40
2022-08-10T13:42:50.097Z,34.60
2022-08-10T13:45:47.700Z,34.60
2022-08-10T13:48:40.000Z,35.50
2022-08-10T13:51:57.540Z,35.60
2022-08-10T13:54:42.914Z,35.40
2022-08-10T13:57:35.479Z,35.00
2022-08-10T14:00:41.493Z,35.20
2022-08-10T14:03:37.627Z,34.50
2022-08-10T14:06:29.828Z,34.60
2022-08-10T14:09:24.869Z,34.30
2022-08-10T14:12:14.120Z,34.30
2022-08-10T14:15:07.105Z,34.80
2022-08-10T14:17:58.327Z,35.70
2022-08-10T14:23:41.239Z,34.20
2022-08-10T14:26:32.056Z,34.60
2022-08-10T14:29:23.825Z,34.30
2022-08-10T14:32:16.207Z,34.50
2022-08-10T14:36:20.492Z,34.60
2022-08-10T14:38:21.263Z,34.10
2022-08-10T14:42:02.942Z,34.40
2022-08-10T14:45:10.937Z,34.50
2022-08-10T14:48:23.585Z,35.20
2022-08-10T14:51:26.581Z,35.50
2022-08-10T14:54:17.455Z,36.00
2022-08-10T14:57:11.494Z,34.60
2022-08-10T15:03:11.217Z,33.40
2022-08-10T15:06:36.985Z,33.50
2022-08-10T15:09:59.851Z,33.50
2022-08-10T15:12:50.941Z,34.00
2022-08-10T15:16:02.240Z,33.40
2022-08-10T15:18:57.964Z,33.20
2022-08-10T15:25:00.442Z,32.80
2022-08-10T15:27:55.338Z,33.00
2022-08-10T15:30:48.080Z,32.70
2022-08-10T15:34:16.046Z,33.20
2022-08-10T15:37:39.450Z,33.30
2022-08-10T15:43:26.592Z,34.20
2022-08-10T15:46:31.860Z,33.60
2022-08-10T15:50:05.318Z,33.70
2022-08-10T15:53:00.559Z,33.00
2022-08-10T15:55:55.549Z,33.40
2022-08-10T15:58:55.994Z,33.90
2022-08-10T16:02:04.188Z,33.40
2022-08-10T16:05:14.233Z,33.00
2022-08-10T16:08:09.281Z,33.60
2022-08-10T16:11:04.183Z,33.00
2022-08-10T16:14:01.247Z,33.10
2022-08-10T16:16:57.585Z,33.90
2022-08-10T16:19:53.166Z,32.80
2022-08-10T16:22:41.660Z,32.60
2022-08-10T16:25:51.300Z,32.70
2022-08-10T16:29:08.439Z,33.00
2022-08-10T16:31:59.813Z,32.90
2022-08-10T16:34:51.065Z,32.50
2022-08-10T16:37:56.585Z,33.50
2022-08-10T16:40:49.677Z,32.80
2022-08-10T16:43:38.798Z,32.60
2022-08-10T16:46:27.773Z,33.00
2022-08-10T16:49:18.147Z,33.00
2022-08-10T16:52:08.013Z,32.70
2022-08-10T16:55:17.028Z,32.50
2022-08-10T16:58:28.130Z,32.30
2022-08-10T17:01:23.857Z,32.70
2022-08-10T17:04:14.509Z,33.00
2022-08-10T17:07:14.284Z,33.20
2022-08-10T17:10:08.073Z,32.70
2022-08-10T17:12:58.522Z,33.00
2022-08-10T17:15:58.109Z,32.30
2022-08-10T17:18:48.274Z,32.50
2022-08-10T17:21:51.484Z,32.90
2022-08-10T17:25:08.921Z,33.50
2022-08-10T17:28:05.030Z,32.70
2022-08-10T17:31:39.800Z,33.00
2022-08-10T17:34:23.742Z,33.00
2022-08-10T17:37:22.349Z,32.90
2022-08-10T17:40:19.342Z,33.00
2022-08-10T17:43:10.019Z,33.00
2022-08-10T17:46:00.197Z,32.70
2022-08-10T17:48:48.776Z,32.50
2022-08-10T17:51:43.539Z,32.70
2022-08-10T17:57:27.012Z,31.80
2022-08-10T18:03:05.420Z,31.50
2022-08-10T18:06:01.891Z,31.70
2022-08-10T18:09:01.201Z,31.80
2022-08-10T18:12:03.658Z,31.20
2022-08-10T18:15:05.256Z,31.40
2022-08-10T18:18:01.744Z,31.60
2022-08-10T18:21:12.960Z,31.50
2022-08-10T18:24:07.751Z,31.40
2022-08-10T18:26:57.587Z,31.20
2022-08-10T18:29:55.222Z,30.90
2022-08-10T18:32:56.417Z,30.70
2022-08-10T18:35:46.378Z,31.30
2022-08-10T18:38:38.434Z,30.20
2022-08-10T18:41:37.388Z,30.50
2022-08-10T18:44:36.102Z,30.20
2022-08-10T18:47:41.626Z,29.70
2022-08-10T18:50:54.400Z,29.60
2022-08-10T18:53:52.086Z,29.40
2022-08-10T18:56:57.998Z,29.10
2022-08-10T19:00:10.379Z,28.60
2022-08-10T19:03:31.582Z,28.50
2022-08-10T19:06:41.335Z,28.40
2022-08-10T19:09:55.105Z,28.10
2022-08-10T19:12:58.847Z,28.30
2022-08-10T19:16:15.007Z,27.90
2022-08-10T19:19:41.238Z,27.60
2022-08-10T19:23:05.741Z,27.40
2022-08-10T19:26:40.938Z,26.90
2022-08-10T19:30:11.891Z,27.10
2022-08-10T19:33:25.438Z,27.00
2022-08-10T19:36:38.379Z,27.00
2022-08-10T19:39:53.467Z,26.90
2022-08-10T19:42:59.477Z,26.70
2022-08-10T19:46:02.423Z,26.50
2022-08-10T19:49:31.149Z,27.40
2022-08-10T19:52:41.376Z,26.50
2022-08-10T19:55:47.120Z,26.20
2022-08-10T19:58:54.003Z,26.10
2022-08-10T20:01:54.511Z,26.10
2022-08-10T20:05:10.151Z,25.90
2022-08-10T20:08:19.781Z,25.70
2022-08-10T20:11:44.705Z,25.50
2022-08-10T20:14:42.839Z,25.40
2022-08-10T20:21:25.661Z,25.20
2022-08-10T20:24:45.373Z,24.80
2022-08-10T20:28:05.794Z,24.90
2022-08-10T20:31:17.135Z,24.50
2022-08-10T20:34:16.993Z,24.60
2022-08-10T20:37:44.986Z,24.30
2022-08-10T20:40:48.547Z,22.70
2022-08-10T20:44:17.375Z,24.20
2022-08-10T20:47:18.788Z,24.10
2022-08-10T20:50:37.234Z,23.80
2022-08-10T20:53:29.584Z,23.80
2022-08-10T20:56:48.361Z,23.60
2022-08-10T21:00:04.527Z,23.50
2022-08-10T21:03:07.543Z,23.40
2022-08-10T21:06:43.161Z,23.30
2022-08-10T21:09:47.109Z,23.00
2022-08-10T21:13:11.978Z,23.30
2022-08-10T21:16:47.438Z,23.00
2022-08-10T21:19:53.891Z,22.80
2022-08-10T21:22:49.562Z,22.80
2022-08-10T21:25:58.962Z,22.70
2022-08-10T21:29:01.799Z,22.70
2022-08-10T21:32:23.371Z,22.60
2022-08-10T21:38:54.091Z,22.50
2022-08-10T21:42:31.969Z,22.40
2022-08-10T21:49:36.907Z,22.10
2022-08-10T21:53:00.838Z,22.00
2022-08-10T21:56:24.926Z,21.90
2022-08-10T22:00:23.909Z,21.80
2022-08-10T22:03:40.169Z,21.90
2022-08-10T22:06:58.340Z,21.60
2022-08-10T22:10:08.357Z,21.60
2022-08-10T22:13:21.713Z,21.60
2022-08-10T22:17:06.887Z,21.40
2022-08-10T22:20:49.738Z,21.30
2022-08-10T22:24:19.601Z,21.20
2022-08-10T22:27:55.389Z,21.20
2022-08-10T22:31:31.617Z,20.90
2022-08-10T22:35:12.993Z,21.10
2022-08-10T22:40:10.203Z,20.80
2022-08-10T22:43:11.058Z,20.80
2022-08-10T22:46:22.928Z,20.70
2022-08-10T22:49:12.115Z,20.50
2022-08-10T22:52:17.229Z,20.60
2022-08-10T22:55:32.296Z,20.20
2022-08-10T22:58:39.219Z,20.40
2022-08-10T23:01:40.907Z,20.30
2022-08-10T23:04:35.909Z,20.40
2022-08-10T23:07:29.817Z,20.30
2022-08-10T23:10:21.565Z,20.10
2022-08-10T23:13:14.250Z,20.10
2022-08-10T23:16:46.371Z,20.10
2022-08-10T23:20:15.777Z,20.20
2022-08-10T23:23:10.147Z,20.10
2022-08-10T23:26:00.734Z,20.10
2022-08-10T23:28:58.257Z,20.10
2022-08-10T23:32:08.406Z,20.10
2022-08-10T23:36:04.315Z,20.00
2022-08-10T23:38:09.403Z,20.00
2022-08-10T23:41:02.683Z,20.00
2022-08-10T23:44:04.813Z,20.00
2022-08-10T23:46:53.827Z,20.10
2022-08-10T23:49:44.728Z,20.00
2022-08-10T23:52:34.726Z,19.90
2022-08-10T23:55:31.259Z,19.80
2022-08-10T23:58:35.504Z,19.70
